createdAt,value
2023-05-12T00:01:27.262Z,42.66
2023-05-12T00:03:54.087Z,42.94
2023-05-12T00:06:21.380Z,43.21
2023-05-12T00:08:47.852Z,42.82
2023-05-12T00:11:14.315Z,42.83
2023-05-12T00:13:40.826Z,43.46
2023-05-12T00:16:07.584Z,43.42
2023-05-12T00:18:34.113Z,43.25
2023-05-12T00:21:01.170Z,43.03
2023-05-12T00:23:27.636Z,43.17
2023-05-12T00:25:54.152Z,42.91
2023-05-12T00:28:20.871Z,43.47
2023-05-12T00:30:47.309Z,43.53
2023-05-12T00:33:13.966Z,43.34
2023-05-12T00:35:40.482Z,43.10
2023-05-12T00:38:06.964Z,43.24
2023-05-12T00:40:33.550Z,43.56
2023-05-12T00:43:00.104Z,43.31
2023-05-12T00:45:26.859Z,43.13
2023-05-12T00:47:53.692Z,43.34
2023-05-12T00:50:21.207Z,43.42
2023-05-12T00:52:50.662Z,43.37
2023-05-12T00:55:17.357Z,43.37
2023-05-12T00:57:44.227Z,43.94
2023-05-12T01:00:11.718Z,43.76
2023-05-12T01:02:39.474Z,44.00
2023-05-12T01:05:06.567Z,43.72
2023-05-12T01:07:33.375Z,43.80
2023-05-12T01:09:59.858Z,44.22
2023-05-12T01:12:26.873Z,43.81
2023-05-12T01:14:55.603Z,43.95
2023-05-12T01:17:28.707Z,43.83
2023-05-12T01:20:00.759Z,44.29
2023-05-12T01:22:31.216Z,44.21
2023-05-12T01:24:59.815Z,44.52
2023-05-12T01:27:27.453Z,44.12
2023-05-12T01:29:56.832Z,44.22
2023-05-12T01:32:23.785Z,44.60
2023-05-12T01:34:53.156Z,44.59
2023-05-12T01:37:19.828Z,44.81
2023-05-12T01:39:46.339Z,44.78
2023-05-12T01:42:13.004Z,44.76
2023-05-12T01:44:39.742Z,45.04
2023-05-12T01:47:09.816Z,44.87
2023-05-12T01:49:36.411Z,45.25
2023-05-12T01:52:03.182Z,45.26
2023-05-12T01:54:29.729Z,45.28
2023-05-12T01:56:56.208Z,45.80
2023-05-12T01:59:22.915Z,45.56
2023-05-12T02:01:49.440Z,45.58
2023-05-12T02:04:16.132Z,45.73
2023-05-12T02:06:43.111Z,45.44
2023-05-12T02:09:09.629Z,45.55
2023-05-12T02:11:36.670Z,45.50
2023-05-12T02:14:03.285Z,45.59
2023-05-12T02:16:29.807Z,45.87
2023-05-12T02:18:56.355Z,46.16
2023-05-12T02:21:23.246Z,46.00
2023-05-12T02:23:49.847Z,45.85
2023-05-12T02:26:16.361Z,46.12
2023-05-12T02:28:42.844Z,46.21
2023-05-12T02:31:09.478Z,46.27
2023-05-12T02:33:36.682Z,46.01
2023-05-12T02:36:03.364Z,46.23
2023-05-12T02:38:29.859Z,46.18
2023-05-12T02:40:56.391Z,46.30
2023-05-12T02:43:22.857Z,46.44
2023-05-12T02:45:49.348Z,46.39
2023-05-12T02:48:15.977Z,46.38
2023-05-12T02:50:43.150Z,46.38
2023-05-12T02:53:09.673Z,46.36
2023-05-12T02:55:36.112Z,46.39
2023-05-12T02:58:02.839Z,46.20
2023-05-12T03:00:29.353Z,46.16
2023-05-12T03:02:56.073Z,46.40
2023-05-12T03:05:22.721Z,46.43
2023-05-12T03:07:52.066Z,46.45
2023-05-12T03:10:19.276Z,46.29
2023-05-12T03:12:46.207Z,46.36
2023-05-12T03:15:12.927Z,46.49
2023-05-12T03:17:39.638Z,46.17
2023-05-12T03:20:06.946Z,46.16
2023-05-12T03:22:33.536Z,46.59
2023-05-12T03:25:00.195Z,46.25
2023-05-12T03:27:26.838Z,46.06
2023-05-12T03:29:53.300Z,46.86
2023-05-12T03:32:19.924Z,45.74
2023-05-12T03:34:46.423Z,45.97
2023-05-12T03:37:12.889Z,45.69
2023-05-12T03:39:39.429Z,46.25
2023-05-12T03:42:06.325Z,45.91
2023-05-12T03:44:32.835Z,45.60
2023-05-12T03:46:59.395Z,45.50
2023-05-12T03:49:26.004Z,45.84
2023-05-12T03:51:52.652Z,45.46
2023-05-12T03:54:19.592Z,45.60
2023-05-12T03:56:46.215Z,45.67
2023-05-12T03:59:12.912Z,45.36
2023-05-12T04:01:39.515Z,45.66
2023-05-12T04:04:06.160Z,45.12
2023-05-12T04:06:32.779Z,45.08
2023-05-12T04:08:59.230Z,45.31
2023-05-12T04:11:25.783Z,44.60
2023-05-12T04:13:52.634Z,45.05
2023-05-12T04:16:19.131Z,44.87
2023-05-12T04:18:45.721Z,44.64
2023-05-12T04:21:12.227Z,44.76
2023-05-12T04:23:38.869Z,44.61
2023-05-12T04:26:05.810Z,44.44
2023-05-12T04:28:32.306Z,44.55
2023-05-12T04:31:04.796Z,44.32
2023-05-12T04:33:31.449Z,44.50
2023-05-12T04:35:58.378Z,44.66
2023-05-12T04:38:25.134Z,44.77
2023-05-12T04:40:51.669Z,44.02
2023-05-12T04:45:47.535Z,44.21
2023-05-12T04:48:14.029Z,44.15
2023-05-12T04:50:40.745Z,43.67
2023-05-12T04:53:07.305Z,43.44
2023-05-12T04:55:34.006Z,44.08
2023-05-12T04:58:00.481Z,44.04
2023-05-12T05:00:26.918Z,43.59
2023-05-12T05:02:53.494Z,43.85
2023-05-12T05:05:20.179Z,43.92
2023-05-12T05:07:46.778Z,43.16
2023-05-12T05:10:13.314Z,43.33
2023-05-12T05:12:39.793Z,43.38
2023-05-12T05:15:07.519Z,43.55
2023-05-12T05:17:34.097Z,43.73
2023-05-12T05:20:00.708Z,42.69
2023-05-12T05:22:27.375Z,42.72
2023-05-12T05:24:53.915Z,42.85
2023-05-12T05:27:20.661Z,42.72
2023-05-12T05:29:47.304Z,43.94
2023-05-12T05:32:13.874Z,42.36
2023-05-12T05:34:40.422Z,42.10
2023-05-12T05:37:06.961Z,41.99
2023-05-12T05:39:33.499Z,40.64
2023-05-12T05:42:00.000Z,40.68
2023-05-12T05:44:26.516Z,39.83
2023-05-12T05:46:53.095Z,38.88
2023-05-12T05:49:19.698Z,38.16
2023-05-12T05:51:46.265Z,36.71
2023-05-12T05:54:12.811Z,35.36
2023-05-12T05:56:39.334Z,34.06
2023-05-12T05:59:06.358Z,34.10
2023-05-12T06:01:33.155Z,33.14
2023-05-12T06:03:59.997Z,33.78
2023-05-12T06:06:26.667Z,31.72
2023-05-12T06:08:56.006Z,30.68
2023-05-12T06:11:22.953Z,31.94
2023-05-12T06:13:49.944Z,31.28
2023-05-12T06:16:16.508Z,29.73
2023-05-12T06:18:43.113Z,28.90
2023-05-12T06:21:09.730Z,30.37
2023-05-12T06:23:36.459Z,29.18
2023-05-12T06:26:03.198Z,29.87
2023-05-12T06:28:30.138Z,28.95
2023-05-12T06:30:56.768Z,28.75
2023-05-12T06:33:23.759Z,26.18
2023-05-12T06:35:50.286Z,28.71
2023-05-12T06:38:16.865Z,28.21
2023-05-12T06:40:43.337Z,28.69
2023-05-12T06:43:09.850Z,27.30
2023-05-12T06:45:36.652Z,27.88
2023-05-12T06:48:05.822Z,27.98
2023-05-12T06:50:32.495Z,28.41
2023-05-12T06:52:58.988Z,28.78
2023-05-12T06:55:25.500Z,28.74
2023-05-12T06:57:55.636Z,27.52
2023-05-12T07:00:26.125Z,26.39
2023-05-12T07:02:53.018Z,25.66
2023-05-12T07:05:20.130Z,26.39
2023-05-12T07:07:46.809Z,26.66
2023-05-12T07:10:13.311Z,26.95
2023-05-12T07:12:39.946Z,25.75
2023-05-12T07:15:07.205Z,26.70
2023-05-12T07:17:33.769Z,28.33
2023-05-12T07:20:00.374Z,26.97
2023-05-12T07:22:27.193Z,27.12
2023-05-12T07:24:53.735Z,27.12
2023-05-12T07:27:20.240Z,27.29
2023-05-12T07:29:46.966Z,27.50
2023-05-12T07:32:13.562Z,27.57
2023-05-12T07:34:40.160Z,28.08
2023-05-12T07:37:06.802Z,28.49
2023-05-12T07:39:33.440Z,29.12
2023-05-12T07:42:00.059Z,28.96
2023-05-12T07:44:27.586Z,28.58
2023-05-12T07:46:54.503Z,28.99
2023-05-12T07:49:23.205Z,29.20
2023-05-12T07:51:49.751Z,29.99
2023-05-12T07:54:16.254Z,30.27
2023-05-12T07:56:42.744Z,29.90
2023-05-12T07:59:09.268Z,29.22
2023-05-12T08:01:35.903Z,28.90
2023-05-12T08:04:02.473Z,29.02
2023-05-12T08:06:29.063Z,28.89
2023-05-12T08:08:58.090Z,27.65
2023-05-12T08:11:27.509Z,29.08
2023-05-12T08:13:54.047Z,28.88
2023-05-12T08:16:20.675Z,28.05
2023-05-12T08:18:47.282Z,27.67
2023-05-12T08:21:14.103Z,28.51
2023-05-12T08:23:41.899Z,28.30
2023-05-12T08:26:08.383Z,27.96
2023-05-12T08:28:35.484Z,28.17
2023-05-12T08:31:04.796Z,27.24
2023-05-12T08:33:31.817Z,26.60
2023-05-12T08:35:58.305Z,26.71
2023-05-12T08:38:24.927Z,26.23
2023-05-12T08:41:20.009Z,25.88
2023-05-12T08:43:50.259Z,24.98
2023-05-12T08:46:17.114Z,24.95
2023-05-12T08:48:47.967Z,25.20
2023-05-12T08:51:14.610Z,26.14
2023-05-12T08:53:42.192Z,25.71
2023-05-12T08:58:42.673Z,26.09
2023-05-12T09:01:11.577Z,26.26
2023-05-12T09:03:38.989Z,27.26
2023-05-12T09:06:06.309Z,26.60
2023-05-12T09:08:34.817Z,26.74
2023-05-12T09:11:02.288Z,27.19
2023-05-12T09:13:40.309Z,27.28
2023-05-12T09:16:12.003Z,27.56
2023-05-12T09:18:48.955Z,27.23
2023-05-12T09:21:15.456Z,27.18
2023-05-12T09:23:52.334Z,27.66
2023-05-12T09:26:18.970Z,26.79
2023-05-12T09:28:45.425Z,26.27
2023-05-12T09:31:19.186Z,26.09
2023-05-12T09:33:45.969Z,26.64
2023-05-12T09:36:20.170Z,26.70
2023-05-12T09:38:47.209Z,27.04
2023-05-12T09:41:13.874Z,26.82
2023-05-12T09:43:46.903Z,27.42
2023-05-12T09:46:14.591Z,26.70
2023-05-12T09:48:41.156Z,26.70
2023-05-12T09:51:10.797Z,26.60
2023-05-12T09:53:42.860Z,27.08
2023-05-12T09:56:09.634Z,27.33
2023-05-12T09:58:37.077Z,26.41
2023-05-12T10:01:18.345Z,27.08
2023-05-12T10:03:54.930Z,26.78
2023-05-12T10:06:30.915Z,26.75
2023-05-12T10:09:06.439Z,26.79
2023-05-12T10:11:35.470Z,26.52
2023-05-12T10:14:02.213Z,26.66
2023-05-12T10:16:28.867Z,27.16
2023-05-12T10:18:56.503Z,26.27
2023-05-12T10:21:24.997Z,26.20
2023-05-12T10:23:52.358Z,25.88
2023-05-12T10:26:19.067Z,26.22
2023-05-12T10:28:46.018Z,25.95
2023-05-12T10:31:12.817Z,27.59
2023-05-12T10:33:39.413Z,26.37
2023-05-12T10:36:16.907Z,26.68
2023-05-12T10:38:43.416Z,26.09
2023-05-12T10:41:09.920Z,26.47
2023-05-12T10:43:45.199Z,26.26
2023-05-12T10:46:18.067Z,26.09
2023-05-12T10:48:59.915Z,25.15
2023-05-12T10:51:31.134Z,24.46
2023-05-12T10:54:06.071Z,24.92
2023-05-12T10:56:38.757Z,25.40
2023-05-12T10:59:19.563Z,25.16
2023-05-12T11:02:25.061Z,25.20
2023-05-12T11:04:56.271Z,24.74
2023-05-12T11:07:27.801Z,25.72
2023-05-12T11:09:59.368Z,24.96
2023-05-12T11:12:35.446Z,24.65
2023-05-12T11:15:03.293Z,25.33
2023-05-12T11:17:29.968Z,26.07
2023-05-12T11:19:56.958Z,26.75
2023-05-12T11:22:23.991Z,25.74
2023-05-12T11:24:52.698Z,26.89
2023-05-12T11:27:23.087Z,25.83
2023-05-12T11:30:00.617Z,25.54
2023-05-12T11:32:27.654Z,25.88
2023-05-12T11:34:54.409Z,25.67
2023-05-12T11:37:21.471Z,25.75
2023-05-12T11:39:48.400Z,25.02
2023-05-12T11:42:16.983Z,25.35
2023-05-12T11:44:48.940Z,24.88
2023-05-12T11:47:16.745Z,24.37
2023-05-12T11:49:48.300Z,24.99
2023-05-12T11:52:15.180Z,25.07
2023-05-12T11:55:08.133Z,24.53
2023-05-12T11:57:38.259Z,24.65
2023-05-12T12:00:09.852Z,24.24
2023-05-12T12:02:43.309Z,24.44
2023-05-12T12:05:21.131Z,23.97
2023-05-12T12:07:48.138Z,24.24
2023-05-12T12:10:16.587Z,24.40
2023-05-12T12:12:43.237Z,24.08
2023-05-12T12:15:10.905Z,24.45
2023-05-12T12:17:37.805Z,25.58
2023-05-12T12:20:04.650Z,25.09
2023-05-12T12:22:34.273Z,25.36
2023-05-12T12:25:01.899Z,25.33
2023-05-12T12:27:28.933Z,24.64
2023-05-12T12:29:55.546Z,24.76
2023-05-12T12:32:22.195Z,24.91
2023-05-12T12:34:49.491Z,24.62
2023-05-12T12:37:16.305Z,24.28
2023-05-12T12:39:42.905Z,24.66
2023-05-12T12:42:09.529Z,24.20
2023-05-12T12:44:36.218Z,24.55
2023-05-12T12:47:02.889Z,24.25
2023-05-12T12:49:29.558Z,24.54
2023-05-12T12:51:56.188Z,24.27
2023-05-12T12:54:23.084Z,24.48
2023-05-12T12:56:50.416Z,23.76
2023-05-12T12:59:16.963Z,23.68
2023-05-12T13:01:43.531Z,24.26
2023-05-12T13:06:36.968Z,24.94
2023-05-12T13:09:03.993Z,24.86
2023-05-12T13:11:30.679Z,24.47
2023-05-12T13:13:57.195Z,24.73
2023-05-12T13:16:23.731Z,24.23
2023-05-12T13:18:50.650Z,23.70
2023-05-12T13:21:18.754Z,23.86
2023-05-12T13:23:45.386Z,23.56
2023-05-12T13:26:11.963Z,23.93
2023-05-12T13:28:38.458Z,23.58
2023-05-12T13:31:06.090Z,23.41
2023-05-12T13:33:32.710Z,23.96
2023-05-12T13:35:59.358Z,23.88
2023-05-12T13:38:26.340Z,23.84
2023-05-12T13:40:55.756Z,23.16
2023-05-12T13:43:22.483Z,23.33
2023-05-12T13:45:48.946Z,23.57
2023-05-12T13:48:15.482Z,23.56
2023-05-12T13:50:42.091Z,23.51
2023-05-12T13:53:11.398Z,23.57
2023-05-12T13:55:40.814Z,23.74
2023-05-12T13:58:07.555Z,23.44
2023-05-12T14:00:34.063Z,23.79
2023-05-12T14:03:02.738Z,23.59
2023-05-12T14:05:29.334Z,22.99
2023-05-12T14:07:55.835Z,23.72
2023-05-12T14:10:22.345Z,23.78
2023-05-12T14:12:48.900Z,23.49
2023-05-12T14:15:28.926Z,23.59
2023-05-12T14:18:01.983Z,23.95
2023-05-12T14:20:28.420Z,23.75
2023-05-12T14:22:55.624Z,24.25
2023-05-12T14:25:23.856Z,23.73
2023-05-12T14:27:50.668Z,23.48
2023-05-12T14:30:17.946Z,23.36
2023-05-12T14:32:44.561Z,23.25
2023-05-12T14:35:11.281Z,23.46
2023-05-12T14:37:38.445Z,23.62
2023-05-12T14:40:05.451Z,24.05
2023-05-12T14:42:32.383Z,23.46
2023-05-12T14:44:59.351Z,24.17
2023-05-12T14:47:26.681Z,24.40
2023-05-12T14:49:53.297Z,24.71
2023-05-12T14:52:19.825Z,25.56
2023-05-12T14:54:46.394Z,24.98
2023-05-12T14:57:13.711Z,24.39
2023-05-12T14:59:40.225Z,24.54
2023-05-12T15:02:07.473Z,24.57
2023-05-12T15:04:34.015Z,24.69
2023-05-12T15:07:00.678Z,24.54
2023-05-12T15:09:27.157Z,24.38
2023-05-12T15:11:53.772Z,24.98
2023-05-12T15:14:20.247Z,24.46
2023-05-12T15:16:46.811Z,25.22
2023-05-12T15:19:14.169Z,24.97
2023-05-12T15:21:41.039Z,25.14
2023-05-12T15:24:07.586Z,25.57
2023-05-12T15:26:35.206Z,24.78
2023-05-12T15:29:03.300Z,24.57
2023-05-12T15:31:30.372Z,24.18
2023-05-12T15:33:57.586Z,24.42
2023-05-12T15:36:24.193Z,24.36
2023-05-12T15:38:50.842Z,24.50
2023-05-12T15:41:17.490Z,24.47
2023-05-12T15:43:44.265Z,24.47
2023-05-12T15:46:11.699Z,24.73
2023-05-12T15:48:39.464Z,24.31
2023-05-12T15:51:06.886Z,24.75
2023-05-12T15:53:33.898Z,24.77
2023-05-12T15:56:01.759Z,24.70
2023-05-12T15:58:28.621Z,24.74
2023-05-12T16:00:56.509Z,24.91
2023-05-12T16:03:23.873Z,24.78
2023-05-12T16:05:50.799Z,24.73
2023-05-12T16:08:17.592Z,24.45
2023-05-12T16:10:44.163Z,24.40
2023-05-12T16:13:10.655Z,24.69
2023-05-12T16:15:37.232Z,25.11
2023-05-12T16:18:05.872Z,24.59
2023-05-12T16:20:33.684Z,24.79
2023-05-12T16:23:00.371Z,24.07
2023-05-12T16:25:26.980Z,24.18
2023-05-12T16:27:53.569Z,24.25
2023-05-12T16:30:20.601Z,24.69
2023-05-12T16:32:47.481Z,25.41
2023-05-12T16:35:14.341Z,25.49
2023-05-12T16:37:41.457Z,25.61
2023-05-12T16:40:09.582Z,26.19
2023-05-12T16:42:36.593Z,26.21
2023-05-12T16:45:03.230Z,26.46
2023-05-12T16:47:29.892Z,27.26
2023-05-12T16:49:58.133Z,26.87
2023-05-12T16:52:25.461Z,26.86
2023-05-12T16:54:52.152Z,27.24
2023-05-12T16:57:18.836Z,26.74
2023-05-12T16:59:45.534Z,26.96
2023-05-12T17:02:12.094Z,27.09
2023-05-12T17:04:38.618Z,26.93
2023-05-12T17:07:05.397Z,27.25
2023-05-12T17:09:31.854Z,27.19
2023-05-12T17:11:58.325Z,26.84
2023-05-12T17:14:25.176Z,26.83
2023-05-12T17:19:18.252Z,27.59
2023-05-12T17:21:44.760Z,27.43
2023-05-12T17:24:11.237Z,28.25
2023-05-12T17:26:37.701Z,28.11
2023-05-12T17:29:04.392Z,28.39
2023-05-12T17:31:31.094Z,28.24
2023-05-12T17:33:57.691Z,28.62
2023-05-12T17:36:24.293Z,28.53
2023-05-12T17:38:51.833Z,29.42
2023-05-12T17:41:19.321Z,28.66
2023-05-12T17:43:45.959Z,29.17
2023-05-12T17:46:12.452Z,28.86
2023-05-12T17:48:39.133Z,29.32
2023-05-12T17:51:05.958Z,29.66
2023-05-12T17:53:32.953Z,29.63
2023-05-12T17:55:59.932Z,29.71
2023-05-12T17:58:26.641Z,30.31
2023-05-12T18:00:53.626Z,30.31
2023-05-12T18:03:23.773Z,30.66
2023-05-12T18:05:51.565Z,30.16
2023-05-12T18:08:18.226Z,30.52
2023-05-12T18:10:45.265Z,31.31
2023-05-12T18:13:11.847Z,30.59
2023-05-12T18:15:39.376Z,30.28
2023-05-12T18:18:06.279Z,30.65
2023-05-12T18:20:32.955Z,31.17
2023-05-12T18:22:59.515Z,31.14
2023-05-12T18:25:26.130Z,31.31
2023-05-12T18:27:52.825Z,31.40
2023-05-12T18:30:19.339Z,31.56
2023-05-12T18:32:45.864Z,31.89
2023-05-12T18:35:12.443Z,31.87
2023-05-12T18:37:38.924Z,31.91
2023-05-12T18:40:06.868Z,32.11
2023-05-12T18:42:34.391Z,31.68
2023-05-12T18:45:00.862Z,32.44
2023-05-12T18:47:27.424Z,32.31
2023-05-12T18:49:54.081Z,31.85
2023-05-12T18:52:23.658Z,32.29
2023-05-12T18:54:50.146Z,32.79
2023-05-12T18:57:17.421Z,32.85
2023-05-12T18:59:43.998Z,33.04
2023-05-12T19:02:10.997Z,33.12
2023-05-12T19:04:37.708Z,33.47
2023-05-12T19:07:06.461Z,33.35
2023-05-12T19:09:32.945Z,34.51
2023-05-12T19:11:59.564Z,33.98
2023-05-12T19:14:26.026Z,33.90
2023-05-12T19:16:52.770Z,35.99
2023-05-12T19:19:19.263Z,35.08
2023-05-12T19:21:45.875Z,35.14
2023-05-12T19:24:12.517Z,34.43
2023-05-12T19:26:39.079Z,35.01
2023-05-12T19:29:05.870Z,34.50
2023-05-12T19:31:34.170Z,35.28
2023-05-12T19:34:00.789Z,34.91
2023-05-12T19:36:29.011Z,35.41
2023-05-12T19:38:59.429Z,34.75
2023-05-12T19:41:29.883Z,35.47
2023-05-12T19:43:56.421Z,35.09
2023-05-12T19:46:22.999Z,35.39
2023-05-12T19:48:50.944Z,36.80
2023-05-12T19:51:17.476Z,36.46
2023-05-12T19:53:44.068Z,37.46
2023-05-12T19:56:10.671Z,38.33
2023-05-12T19:58:37.115Z,38.39
2023-05-12T20:01:03.686Z,39.05
2023-05-12T20:03:30.338Z,37.72
2023-05-12T20:05:58.515Z,37.63
2023-05-12T20:08:24.977Z,41.47
2023-05-12T20:10:51.478Z,39.44
2023-05-12T20:13:17.962Z,40.65
2023-05-12T20:15:44.594Z,42.45
2023-05-12T20:18:12.647Z,39.11
2023-05-12T20:20:39.268Z,42.32
2023-05-12T20:23:05.725Z,44.30
2023-05-12T20:25:33.140Z,40.52
2023-05-12T20:27:59.685Z,45.53
2023-05-12T20:30:26.672Z,43.93
2023-05-12T20:32:53.223Z,43.01
2023-05-12T20:35:20.462Z,45.50
2023-05-12T20:37:47.377Z,46.57
2023-05-12T20:40:14.107Z,45.73
2023-05-12T20:42:40.642Z,46.11
2023-05-12T20:45:07.758Z,46.44
2023-05-12T20:47:35.065Z,46.93
2023-05-12T20:50:05.507Z,47.83
2023-05-12T20:52:33.687Z,47.56
2023-05-12T20:55:00.278Z,46.25
2023-05-12T20:57:27.088Z,47.83
2023-05-12T20:59:56.670Z,47.42
2023-05-12T21:02:24.557Z,48.38
2023-05-12T21:04:51.308Z,48.86
2023-05-12T21:07:17.811Z,50.00
2023-05-12T21:09:44.377Z,48.47
2023-05-12T21:12:10.883Z,48.70
2023-05-12T21:14:41.270Z,48.51
2023-05-12T21:17:08.701Z,49.40
2023-05-12T21:19:36.459Z,49.21
2023-05-12T21:22:03.901Z,48.19
2023-05-12T21:24:30.454Z,48.98
2023-05-12T21:26:56.959Z,49.23
2023-05-12T21:29:23.459Z,49.28
2023-05-12T21:31:50.260Z,49.04
2023-05-12T21:34:17.030Z,48.33
2023-05-12T21:36:43.554Z,49.97
2023-05-12T21:39:10.066Z,49.55
2023-05-12T21:41:38.448Z,48.99
2023-05-12T21:44:10.475Z,48.03
2023-05-12T21:46:37.945Z,49.58
2023-05-12T21:49:04.527Z,49.48
2023-05-12T21:51:33.015Z,50.19
2023-05-12T21:54:00.025Z,50.38
2023-05-12T21:56:26.910Z,50.07
2023-05-12T21:58:53.448Z,50.16
2023-05-12T22:01:20.072Z,50.42
2023-05-12T22:03:46.678Z,51.21
2023-05-12T22:06:13.308Z,52.40
2023-05-12T22:08:42.284Z,52.76
2023-05-12T22:11:08.954Z,51.31
2023-05-12T22:13:35.454Z,50.71
2023-05-12T22:16:03.857Z,51.64
2023-05-12T22:18:30.455Z,51.25
2023-05-12T22:20:57.020Z,51.39
2023-05-12T22:23:23.555Z,51.52
2023-05-12T22:25:50.136Z,52.38
2023-05-12T22:28:16.644Z,52.52
2023-05-12T22:30:43.264Z,51.56
2023-05-12T22:33:09.789Z,52.03
2023-05-12T22:35:36.261Z,52.87
2023-05-12T22:38:02.797Z,52.54
2023-05-12T22:40:30.641Z,52.63
2023-05-12T22:42:57.175Z,52.76
2023-05-12T22:45:25.198Z,52.77
2023-05-12T22:47:51.723Z,52.25
2023-05-12T22:50:18.790Z,53.26
2023-05-12T22:52:45.701Z,54.28
2023-05-12T22:55:12.230Z,54.15
2023-05-12T22:57:40.693Z,53.99
2023-05-12T23:00:08.088Z,54.39
2023-05-12T23:02:34.603Z,54.27
2023-05-12T23:05:02.499Z,54.99
2023-05-12T23:07:29.199Z,55.13
2023-05-12T23:09:55.820Z,54.62
2023-05-12T23:12:22.275Z,54.59
2023-05-12T23:14:48.787Z,53.91
2023-05-12T23:17:15.209Z,54.03
2023-05-12T23:19:41.697Z,54.55
2023-05-12T23:22:08.155Z,54.54
2023-05-12T23:24:35.994Z,55.06
2023-05-12T23:27:02.510Z,54.76
2023-05-12T23:29:29.206Z,54.31
2023-05-12T23:31:56.455Z,54.05
2023-05-12T23:34:23.007Z,52.90
2023-05-12T23:36:49.460Z,52.49
2023-05-12T23:39:16.193Z,53.30
2023-05-12T23:41:42.800Z,52.84
2023-05-12T23:44:09.258Z,52.94
2023-05-12T23:46:35.733Z,53.16
2023-05-12T23:49:02.273Z,54.30
2023-05-12T23:51:29.066Z,54.45
2023-05-12T23:53:55.619Z,54.91
2023-05-12T23:56:22.851Z,55.36
2023-05-12T23:58:49.429Z,55.47
